Main page
METAR-TAF:

METAR-TAF

Airports :

Mehrabad International Airport

Tehran, Iran

latitude: 35-41N, longitude: 051-21E, elevation: 1204 m

Current weather observation

The report was made 16 minutes ago, at 11:30 UTC
Wind 10 kt from the South/Southeast
Temperature 40°C
Humidity 8%
Pressure 1004 hPa
Visibility 10 km or more
Few clouds at a height of 4000 ft

METAR: OIII 231130Z 16010KT 9999 FEW040 40/M01 Q1003 A2964

Time: 16:16 (11:46 UTC)

Forecast

The report was made 36 minutes ago, at 11:10 UTC
Forecast valid from 23 at 12 UTC to 24 at 18 UTC
Wind 8 kt from the East/Southeast
Visibility: 7000 m
Scattered clouds at a height of 10000 ft
Temporary
from 23 at 12 UTC to 23 at 15 UTC
Wind 17 kt from the East/Southeast

TAF: OIII 231110Z 2312/2418 11004MPS 7000 SCT100 TEMPO 2312/2315 11009MPS

Weather observations and forecasts of more than 4000 airports (METAR and TAF reports).

The available stations are represented by yellow and red dots on the map.

Hover mouse over dot to see the name of the station.

Then click to see weather observations and forecasts.

To change the map : click on the green buttons with a black cross to zoom in, on the green button with a dash to zoom out, or on the green arrows for adjacent maps.


METAR-TAF: